createdAt,value
2023-05-20T00:00:01.613Z,102029.34
2023-05-20T00:02:29.228Z,102023.97
2023-05-20T00:04:56.732Z,102030.53
2023-05-20T00:07:24.031Z,102026.00
2023-05-20T00:09:51.744Z,102022.34
2023-05-20T00:12:19.171Z,102026.78
2023-05-20T00:14:46.580Z,102023.19
2023-05-20T00:17:13.841Z,102018.81
2023-05-20T00:19:41.073Z,102029.56
2023-05-20T00:22:08.913Z,102027.84
2023-05-20T00:24:36.106Z,102028.78
2023-05-20T00:27:03.515Z,102032.25
2023-05-20T00:29:30.887Z,102028.56
2023-05-20T00:31:58.252Z,102016.97
2023-05-20T00:34:25.552Z,102025.16
2023-05-20T00:36:52.785Z,102018.81
2023-05-20T00:39:19.994Z,102018.91
2023-05-20T00:41:47.202Z,102019.97
2023-05-20T00:44:14.437Z,102017.19
2023-05-20T00:46:41.720Z,102016.22
2023-05-20T00:49:08.980Z,102016.31
2023-05-20T00:51:36.231Z,102013.63
2023-05-20T00:54:03.906Z,102012.66
2023-05-20T00:56:31.158Z,102008.25
2023-05-20T00:58:58.694Z,102013.63
2023-05-20T01:01:26.121Z,102014.50
2023-05-20T01:03:53.549Z,102008.16
2023-05-20T01:06:20.838Z,102014.41
2023-05-20T01:08:48.083Z,102009.13
2023-05-20T01:11:38.855Z,102000.19
2023-05-20T01:14:08.599Z,102005.56
2023-05-20T01:16:37.074Z,101999.34
2023-05-20T01:19:09.362Z,101998.56
2023-05-20T01:21:37.407Z,102003.84
2023-05-20T01:24:05.893Z,102003.28
2023-05-20T01:26:33.501Z,102001.38
2023-05-20T01:29:04.315Z,102004.91
2023-05-20T01:31:33.979Z,102002.34
2023-05-20T01:34:01.526Z,101987.09
2023-05-20T01:36:29.327Z,101995.88
2023-05-20T01:38:57.077Z,101988.78
2023-05-20T01:41:25.147Z,101981.59
2023-05-20T01:43:52.389Z,101978.91
2023-05-20T01:46:19.711Z,101980.72
2023-05-20T01:48:46.983Z,101986.09
2023-05-20T01:51:14.732Z,101975.34
2023-05-20T01:53:41.980Z,101978.03
2023-05-20T01:56:09.516Z,101984.47
2023-05-20T01:58:36.724Z,101974.50
2023-05-20T02:01:04.299Z,101980.84
2023-05-20T02:03:31.529Z,101980.94
2023-05-20T02:05:58.868Z,101979.09
2023-05-20T02:08:26.092Z,101973.72
2023-05-20T02:10:53.299Z,101976.41
2023-05-20T02:13:20.575Z,101975.47
2023-05-20T02:15:48.153Z,101983.53
2023-05-20T02:18:18.605Z,101975.47
2023-05-20T02:20:45.918Z,101978.16
2023-05-20T02:23:13.142Z,101977.28
2023-05-20T02:25:41.367Z,101985.34
2023-05-20T02:28:10.613Z,101982.66
2023-05-20T02:30:38.830Z,101981.91
2023-05-20T02:33:06.989Z,101982.78
2023-05-20T02:35:34.693Z,101977.41
2023-05-20T02:38:02.142Z,101975.69
2023-05-20T02:40:29.427Z,101984.59
2023-05-20T02:42:56.645Z,101981.06
2023-05-20T02:45:23.859Z,101987.28
2023-05-20T02:47:51.106Z,101988.16
2023-05-20T02:50:18.350Z,101989.13
2023-05-20T02:52:46.255Z,101991.81
2023-05-20T02:55:13.712Z,101988.16
2023-05-20T02:57:41.033Z,101988.25
2023-05-20T03:00:13.192Z,101991.81
2023-05-20T03:02:40.582Z,101991.91
2023-05-20T03:05:08.102Z,101991.03
2023-05-20T03:07:38.574Z,101988.34
2023-05-20T03:10:06.659Z,101995.56
2023-05-20T03:12:33.884Z,101990.06
2023-05-20T03:15:01.222Z,101994.59
2023-05-20T03:17:28.453Z,101998.13
2023-05-20T03:19:56.145Z,102006.19
2023-05-20T03:22:23.418Z,102006.19
2023-05-20T03:24:52.752Z,102004.38
2023-05-20T03:27:21.323Z,102010.72
2023-05-20T03:29:48.869Z,101996.41
2023-05-20T03:32:16.706Z,102001.69
2023-05-20T03:34:43.937Z,102003.63
2023-05-20T03:37:11.141Z,101998.13
2023-05-20T03:39:38.369Z,102003.50
2023-05-20T03:42:06.010Z,102001.69
2023-05-20T03:44:33.232Z,102004.59
2023-05-20T03:47:00.690Z,101998.13
2023-05-20T03:49:27.942Z,101997.41
2023-05-20T03:51:55.174Z,102004.69
2023-05-20T03:54:22.404Z,102006.31
2023-05-20T03:56:49.679Z,102012.53
2023-05-20T03:59:17.888Z,101999.09
2023-05-20T04:01:45.171Z,102005.34
2023-05-20T04:04:12.561Z,102004.47
2023-05-20T04:06:40.498Z,101993.72
2023-05-20T04:09:07.743Z,101998.25
2023-05-20T04:11:35.151Z,101992.03
2023-05-20T04:14:02.354Z,101995.66
2023-05-20T04:16:30.313Z,101992.97
2023-05-20T04:18:59.415Z,101989.34
2023-05-20T04:21:27.273Z,101995.66
2023-05-20T04:23:54.490Z,101994.78
2023-05-20T04:26:22.680Z,101995.66
2023-05-20T04:28:49.991Z,102001.03
2023-05-20T04:31:17.707Z,102002.84
2023-05-20T04:33:44.985Z,101995.66
2023-05-20T04:36:15.400Z,102003.72
2023-05-20T04:38:44.446Z,102001.03
2023-05-20T04:41:11.670Z,101999.09
2023-05-20T04:43:40.128Z,102009.09
2023-05-20T04:46:07.696Z,102002.00
2023-05-20T04:48:35.190Z,102000.28
2023-05-20T04:51:02.591Z,102002.00
2023-05-20T04:53:30.677Z,102000.38
2023-05-20T04:55:57.978Z,101993.09
2023-05-20T04:58:25.357Z,101988.47
2023-05-20T05:00:53.353Z,101984.03
2023-05-20T05:03:20.621Z,101984.16
2023-05-20T05:05:48.134Z,101983.19
2023-05-20T05:08:15.666Z,101988.56
2023-05-20T05:10:42.888Z,101983.19
2023-05-20T05:13:10.097Z,101979.66
2023-05-20T05:15:37.353Z,101980.50
2023-05-20T05:18:04.974Z,101981.34
2023-05-20T05:20:32.273Z,101983.19
2023-05-20T05:22:59.651Z,101980.72
2023-05-20T05:25:26.856Z,101983.19
2023-05-20T05:27:55.298Z,101981.34
2023-05-20T05:30:22.526Z,101979.66
2023-05-20T05:32:50.037Z,101977.81
2023-05-20T05:35:17.521Z,101975.13
2023-05-20T05:37:44.737Z,101977.72
2023-05-20T05:40:12.226Z,101975.97
2023-05-20T05:42:39.437Z,101980.41
2023-05-20T05:45:07.167Z,101970.53
2023-05-20T05:47:34.507Z,101975.03
2023-05-20T05:50:01.866Z,101967.91
2023-05-20T05:52:29.115Z,101969.75
2023-05-20T05:54:56.614Z,101969.75
2023-05-20T05:57:23.968Z,101973.22
2023-05-20T05:59:51.355Z,101964.28
2023-05-20T06:02:18.683Z,101966.09
2023-05-20T06:04:45.974Z,101966.09
2023-05-20T06:07:13.263Z,101960.84
2023-05-20T06:09:40.502Z,101957.28
2023-05-20T06:12:07.999Z,101963.41
2023-05-20T06:14:35.287Z,101958.03
2023-05-20T06:17:04.288Z,101959.78
2023-05-20T06:19:31.964Z,101962.34
2023-05-20T06:21:59.193Z,101975.91
2023-05-20T06:24:26.449Z,101976.84
2023-05-20T06:26:53.786Z,101975.97
2023-05-20T06:29:21.049Z,101979.66
2023-05-20T06:31:48.304Z,101981.34
2023-05-20T06:34:15.521Z,101985.78
2023-05-20T06:36:42.757Z,101979.53
2023-05-20T06:39:12.802Z,101987.59
2023-05-20T06:41:41.026Z,101979.53
2023-05-20T06:44:08.445Z,101980.41
2023-05-20T06:46:35.794Z,101984.81
2023-05-20T06:49:03.313Z,101989.22
2023-05-20T06:51:31.016Z,101988.34
2023-05-20T06:53:58.271Z,101988.34
2023-05-20T06:56:25.697Z,101981.28
2023-05-20T06:58:52.913Z,101982.97
2023-05-20T07:01:20.164Z,101978.47
2023-05-20T07:03:47.464Z,101983.97
2023-05-20T07:06:14.718Z,101979.44
2023-05-20T07:08:41.918Z,101977.59
2023-05-20T07:11:09.133Z,101979.44
2023-05-20T07:13:36.374Z,101973.94
2023-05-20T07:16:03.619Z,101966.97
2023-05-20T07:18:31.127Z,101965.16
2023-05-20T07:20:58.529Z,101961.47
2023-05-20T07:23:25.833Z,101960.63
2023-05-20T07:25:54.125Z,101956.09
2023-05-20T07:28:22.806Z,101956.97
2023-05-20T07:30:50.512Z,101948.81
2023-05-20T07:33:18.620Z,101944.38
2023-05-20T07:35:46.346Z,101953.28
2023-05-20T07:38:13.714Z,101950.59
2023-05-20T07:40:42.055Z,101948.69
2023-05-20T07:43:09.460Z,101955.78
2023-05-20T07:45:37.393Z,101950.53
2023-05-20T07:48:05.707Z,101944.28
2023-05-20T07:50:34.817Z,101946.00
2023-05-20T07:53:02.390Z,101941.38
2023-05-20T07:55:29.637Z,101936.09
2023-05-20T07:57:57.165Z,101944.94
2023-05-20T08:00:24.788Z,101936.88
2023-05-20T08:02:52.382Z,101938.78
2023-05-20T08:05:19.754Z,101936.00
2023-05-20T08:07:46.992Z,101924.28
2023-05-20T08:10:14.595Z,101929.78
2023-05-20T08:12:41.893Z,101933.31
2023-05-20T08:15:09.466Z,101927.81
2023-05-20T08:17:36.872Z,101926.88
2023-05-20T08:20:04.521Z,101918.91
2023-05-20T08:22:31.814Z,101919.75
2023-05-20T08:24:59.051Z,101915.16
2023-05-20T08:27:26.375Z,101915.03
2023-05-20T08:29:53.774Z,101912.47
2023-05-20T08:32:21.495Z,101920.53
2023-05-20T08:34:49.306Z,101903.34
2023-05-20T08:37:17.070Z,101896.13
2023-05-20T08:39:46.617Z,101899.75
2023-05-20T08:42:14.134Z,101899.53
2023-05-20T08:44:42.124Z,101898.81
2023-05-20T08:47:09.809Z,101899.53
2023-05-20T08:49:37.746Z,101908.59
2023-05-20T08:52:05.072Z,101900.84
2023-05-20T08:54:58.672Z,101902.03
2023-05-20T08:57:26.147Z,101901.38
2023-05-20T08:59:53.502Z,101899.53
2023-05-20T09:02:20.762Z,101906.75
2023-05-20T09:04:48.050Z,101908.59
2023-05-20T09:07:15.457Z,101909.66
2023-05-20T09:09:42.721Z,101909.66
2023-05-20T09:12:11.316Z,101910.63
2023-05-20T09:14:38.812Z,101900.00
2023-05-20T09:17:08.463Z,101909.00
2023-05-20T09:19:36.153Z,101912.69
2023-05-20T09:22:05.306Z,101905.03
2023-05-20T09:24:32.543Z,101906.88
2023-05-20T09:27:00.133Z,101901.72
2023-05-20T09:29:27.357Z,101905.38
2023-05-20T09:31:57.009Z,101914.81
2023-05-20T09:34:24.313Z,101909.78
2023-05-20T09:36:52.126Z,101915.25
2023-05-20T09:39:26.018Z,101899.53
2023-05-20T09:42:12.173Z,101910.00
2023-05-20T09:44:39.615Z,101909.00
2023-05-20T09:47:09.958Z,101901.06
2023-05-20T09:49:38.751Z,101902.91
2023-05-20T09:52:07.706Z,101904.72
2023-05-20T09:54:35.431Z,101906.75
2023-05-20T09:57:06.810Z,101902.56
2023-05-20T09:59:34.344Z,101895.47
2023-05-20T10:02:01.643Z,101888.38
2023-05-20T10:04:29.581Z,101876.75
2023-05-20T10:07:37.938Z,101879.34
2023-05-20T10:10:33.586Z,101875.59
2023-05-20T10:13:19.488Z,101876.25
2023-05-20T10:16:24.847Z,101879.34
2023-05-20T10:19:18.484Z,101876.53
2023-05-20T10:21:55.820Z,101874.06
2023-05-20T10:24:33.694Z,101877.94
2023-05-20T10:27:03.340Z,101883.19
2023-05-20T10:29:43.141Z,101877.19
2023-05-20T10:32:10.699Z,101873.34
2023-05-20T10:34:49.172Z,101865.16
2023-05-20T10:37:27.456Z,101865.28
2023-05-20T10:40:06.022Z,101864.84
2023-05-20T10:42:33.849Z,101863.13
2023-05-20T10:45:01.200Z,101870.09
2023-05-20T10:47:28.760Z,101863.88
2023-05-20T10:49:56.165Z,101858.38
2023-05-20T10:52:24.818Z,101859.47
2023-05-20T10:54:57.328Z,101853.13
2023-05-20T10:57:28.367Z,101847.84
2023-05-20T10:59:56.776Z,101849.59
2023-05-20T11:02:27.070Z,101840.53
2023-05-20T11:04:58.529Z,101833.25
2023-05-20T11:07:31.561Z,101836.88
2023-05-20T11:09:59.254Z,101827.00
2023-05-20T11:12:27.458Z,101833.25
2023-05-20T11:14:55.333Z,101818.94
2023-05-20T11:17:22.983Z,101812.69
2023-05-20T11:19:51.600Z,101807.44
2023-05-20T11:22:18.874Z,101823.34
2023-05-20T11:24:46.481Z,101819.19
2023-05-20T11:27:13.701Z,101825.84
2023-05-20T11:29:41.513Z,101815.94
2023-05-20T11:32:09.127Z,101811.97
2023-05-20T11:34:39.916Z,101812.72
2023-05-20T11:37:11.432Z,101807.34
2023-05-20T11:39:39.336Z,101808.66
2023-05-20T11:42:09.331Z,101806.91
2023-05-20T11:44:36.587Z,101804.66
2023-05-20T11:47:04.261Z,101796.72
2023-05-20T11:49:31.842Z,101786.81
2023-05-20T11:51:59.115Z,101775.31
2023-05-20T11:54:26.608Z,101785.13
2023-05-20T11:56:56.028Z,101773.38
2023-05-20T11:59:25.089Z,101776.63
2023-05-20T12:01:52.751Z,101767.59
2023-05-20T12:04:20.072Z,101762.09
2023-05-20T12:06:47.401Z,101774.66
2023-05-20T12:09:14.958Z,101772.97
2023-05-20T12:11:43.583Z,101765.75
2023-05-20T12:14:11.225Z,101762.75
2023-05-20T12:16:38.913Z,101760.06
2023-05-20T12:19:06.948Z,101754.44
2023-05-20T12:21:34.254Z,101749.81
2023-05-20T12:24:01.719Z,101751.09
2023-05-20T12:26:30.235Z,101756.38
2023-05-20T12:28:57.886Z,101750.81
2023-05-20T12:31:25.976Z,101751.75
2023-05-20T12:33:53.287Z,101743.78
2023-05-20T12:36:20.699Z,101733.59
2023-05-20T12:38:48.108Z,101742.38
2023-05-20T12:41:15.650Z,101736.91
2023-05-20T12:43:43.066Z,101725.38
2023-05-20T12:46:10.619Z,101734.09
2023-05-20T12:48:37.995Z,101717.88
2023-05-20T12:51:05.874Z,101724.31
2023-05-20T12:53:33.137Z,101733.63
2023-05-20T12:56:01.085Z,101730.09
2023-05-20T12:58:28.427Z,101728.78
2023-05-20T13:00:55.768Z,101726.66
2023-05-20T13:03:23.072Z,101720.88
2023-05-20T13:05:50.541Z,101714.28
2023-05-20T13:08:18.161Z,101718.72
2023-05-20T13:10:45.652Z,101700.56
2023-05-20T13:13:13.898Z,101697.88
2023-05-20T13:15:41.403Z,101690.81
2023-05-20T13:18:10.369Z,101689.81
2023-05-20T13:20:37.964Z,101694.13
2023-05-20T13:23:05.668Z,101683.00
2023-05-20T13:25:33.288Z,101692.78
2023-05-20T13:28:00.642Z,101677.19
2023-05-20T13:30:28.544Z,101671.59
2023-05-20T13:32:56.119Z,101670.59
2023-05-20T13:35:23.516Z,101668.16
2023-05-20T13:37:50.872Z,101668.28
2023-05-20T13:40:18.333Z,101656.53
2023-05-20T13:42:45.578Z,101659.75
2023-05-20T13:45:12.815Z,101664.28
2023-05-20T13:47:40.555Z,101654.47
2023-05-20T13:50:08.670Z,101668.81
2023-05-20T13:52:36.209Z,101670.16
2023-05-20T13:55:03.795Z,101670.94
2023-05-20T13:57:31.415Z,101670.72
2023-05-20T13:59:58.912Z,101669.63
2023-05-20T14:02:26.558Z,101664.03
2023-05-20T14:04:53.981Z,101658.63
2023-05-20T14:07:21.416Z,101663.88
2023-05-20T14:09:48.631Z,101651.28
2023-05-20T14:12:16.160Z,101649.38
2023-05-20T14:14:43.369Z,101650.22
2023-05-20T14:17:11.112Z,101644.97
2023-05-20T14:19:38.516Z,101643.38
2023-05-20T14:22:06.040Z,101643.22
2023-05-20T14:24:33.246Z,101639.69
2023-05-20T14:27:00.634Z,101636.00
2023-05-20T14:29:28.125Z,101627.84
2023-05-20T14:31:55.530Z,101621.63
2023-05-20T14:34:22.822Z,101621.47
2023-05-20T14:36:50.038Z,101625.16
2023-05-20T14:39:17.366Z,101612.19
2023-05-20T14:41:44.714Z,101614.66
2023-05-20T14:44:11.987Z,101609.94
2023-05-20T14:46:39.327Z,101608.09
2023-05-20T14:49:06.593Z,101604.28
2023-05-20T14:51:33.847Z,101600.50
2023-05-20T14:54:01.102Z,101605.88
2023-05-20T14:56:28.429Z,101611.25
2023-05-20T14:59:02.136Z,101600.41
2023-05-20T15:01:29.912Z,101599.41
2023-05-20T15:03:57.175Z,101597.56
2023-05-20T15:06:24.422Z,101596.63
2023-05-20T15:08:51.919Z,101598.44
2023-05-20T15:11:19.274Z,101583.03
2023-05-20T15:13:46.592Z,101577.56
2023-05-20T15:16:14.148Z,101582.06
2023-05-20T15:18:41.679Z,101573.03
2023-05-20T15:21:08.927Z,101573.88
2023-05-20T15:23:36.166Z,101580.13
2023-05-20T15:26:03.738Z,101574.72
2023-05-20T15:28:31.096Z,101577.28
2023-05-20T15:30:58.555Z,101579.03
2023-05-20T15:33:26.022Z,101569.97
2023-05-20T15:35:53.578Z,101576.19
2023-05-20T15:38:20.993Z,101572.56
2023-05-20T15:40:50.268Z,101571.66
2023-05-20T15:43:18.223Z,101573.50
2023-05-20T15:45:46.574Z,101569.72
2023-05-20T15:48:14.078Z,101570.56
2023-05-20T15:50:41.755Z,101570.56
2023-05-20T15:53:09.957Z,101564.72
2023-05-20T15:55:37.521Z,101555.66
2023-05-20T15:58:04.937Z,101565.47
2023-05-20T16:00:32.534Z,101559.84
2023-05-20T16:03:00.350Z,101561.78
2023-05-20T16:05:27.976Z,101557.75
2023-05-20T16:07:56.925Z,101555.53
2023-05-20T16:10:26.037Z,101548.19
2023-05-20T16:12:53.645Z,101551.75
2023-05-20T16:15:21.013Z,101554.06
2023-05-20T16:17:48.350Z,101534.38
2023-05-20T16:20:15.617Z,101540.63
2023-05-20T16:22:42.833Z,101544.53
2023-05-20T16:25:11.177Z,101534.75
2023-05-20T16:27:38.513Z,101535.84
2023-05-20T16:30:08.186Z,101525.09
2023-05-20T16:32:35.465Z,101522.88
2023-05-20T16:35:03.172Z,101524.38
2023-05-20T16:37:30.528Z,101518.75
2023-05-20T16:39:57.755Z,101519.47
2023-05-20T16:42:25.076Z,101521.91
2023-05-20T16:44:53.873Z,101520.06
2023-05-20T16:47:21.844Z,101510.91
2023-05-20T16:49:49.640Z,101506.38
2023-05-20T16:52:17.164Z,101517.03
2023-05-20T16:54:44.885Z,101506.97
2023-05-20T16:57:14.048Z,101511.41
2023-05-20T16:59:41.775Z,101512.13
2023-05-20T17:02:09.322Z,101513.84
2023-05-20T17:04:37.787Z,101510.16
2023-05-20T17:07:09.676Z,101510.91
2023-05-20T17:09:37.479Z,101497.22
2023-05-20T17:12:05.419Z,101517.50
2023-05-20T17:14:32.798Z,101513.09
2023-05-20T17:17:00.493Z,101506.00
2023-05-20T17:19:28.136Z,101503.91
2023-05-20T17:21:55.814Z,101507.97
2023-05-20T17:24:23.290Z,101491.06
2023-05-20T17:26:50.838Z,101501.94
2023-05-20T17:29:18.730Z,101507.44
2023-05-20T17:31:46.342Z,101507.81
2023-05-20T17:34:13.910Z,101515.00
2023-05-20T17:36:41.715Z,101514.06
2023-05-20T17:39:09.760Z,101503.91
2023-05-20T17:41:37.384Z,101509.16
2023-05-20T17:44:04.881Z,101508.19
2023-05-20T17:46:32.222Z,101513.59
2023-05-20T17:48:59.683Z,101517.97
2023-05-20T17:51:27.176Z,101513.97
2023-05-20T17:53:54.620Z,101516.13
2023-05-20T17:56:22.833Z,101515.28
2023-05-20T17:58:50.702Z,101515.03
2023-05-20T18:01:18.292Z,101515.75
2023-05-20T18:03:45.748Z,101510.50
2023-05-20T18:06:13.190Z,101506.22
2023-05-20T18:08:40.596Z,101505.47
2023-05-20T18:11:08.025Z,101504.63
2023-05-20T18:13:35.248Z,101498.41
2023-05-20T18:16:02.752Z,101503.88
2023-05-20T18:18:30.148Z,101501.19
2023-05-20T18:20:57.356Z,101497.78
2023-05-20T18:23:24.803Z,101500.56
2023-05-20T18:25:52.192Z,101505.94
2023-05-20T18:28:19.686Z,101502.78
2023-05-20T18:30:46.994Z,101507.41
2023-05-20T18:33:14.253Z,101494.84
2023-05-20T18:35:41.531Z,101491.94
2023-05-20T18:38:08.731Z,101495.81
2023-05-20T18:40:36.188Z,101488.19
2023-05-20T18:43:03.634Z,101501.00
2023-05-20T18:45:30.910Z,101502.97
2023-05-20T18:47:59.796Z,101505.66
2023-05-20T18:50:27.292Z,101507.38
2023-05-20T18:52:54.829Z,101511.16
2023-05-20T18:55:22.056Z,101511.38
2023-05-20T18:57:49.401Z,101509.06
2023-05-20T19:00:17.194Z,101512.47
2023-05-20T19:02:45.202Z,101505.38
2023-05-20T19:05:13.176Z,101504.63
2023-05-20T19:07:41.125Z,101519.81
2023-05-20T19:10:09.295Z,101519.91
2023-05-20T19:12:36.702Z,101516.38
2023-05-20T19:15:05.276Z,101517.22
2023-05-20T19:17:32.537Z,101511.00
2023-05-20T19:19:59.766Z,101516.50
2023-05-20T19:22:26.975Z,101511.22
2023-05-20T19:24:54.200Z,101515.75
2023-05-20T19:27:21.536Z,101512.44
2023-05-20T19:29:48.916Z,101512.31
2023-05-20T19:32:16.179Z,101515.50
2023-05-20T19:34:43.835Z,101519.03
2023-05-20T19:37:11.437Z,101524.75
2023-05-20T19:39:38.811Z,101527.44
2023-05-20T19:42:06.294Z,101527.44
2023-05-20T19:44:33.614Z,101525.59
2023-05-20T19:47:01.513Z,101528.34
2023-05-20T19:49:29.469Z,101535.56
2023-05-20T19:51:56.921Z,101530.25
2023-05-20T19:54:24.157Z,101530.19
2023-05-20T19:56:51.363Z,101526.66
2023-05-20T19:59:18.570Z,101534.34
2023-05-20T20:01:46.204Z,101530.47
2023-05-20T20:04:16.989Z,101535.59
2023-05-20T20:06:44.468Z,101536.22
2023-05-20T20:09:12.020Z,101540.50
2023-05-20T20:11:39.263Z,101536.69
2023-05-20T20:14:06.569Z,101537.44
2023-05-20T20:16:35.310Z,101533.53
2023-05-20T20:19:03.970Z,101530.72
2023-05-20T20:21:31.841Z,101531.81
2023-05-20T20:24:01.890Z,101522.59
2023-05-20T20:26:33.616Z,101532.75
2023-05-20T20:29:04.282Z,101534.59
2023-05-20T20:31:31.904Z,101531.88
2023-05-20T20:33:59.198Z,101526.00
2023-05-20T20:36:31.620Z,101526.13
2023-05-20T20:39:02.718Z,101526.25
2023-05-20T20:41:30.184Z,101524.78
2023-05-20T20:43:57.905Z,101521.97
2023-05-20T20:46:27.466Z,101517.44
2023-05-20T20:48:54.984Z,101528.22
2023-05-20T20:51:22.499Z,101513.06
2023-05-20T20:53:52.146Z,101520.16
2023-05-20T20:56:19.498Z,101515.47
2023-05-20T20:58:46.979Z,101514.75
2023-05-20T21:01:17.342Z,101504.00
2023-05-20T21:03:45.020Z,101513.78
2023-05-20T21:06:15.224Z,101514.75
2023-05-20T21:08:42.563Z,101512.19
2023-05-20T21:11:10.077Z,101505.00
2023-05-20T21:13:39.443Z,101499.63
2023-05-20T21:16:07.416Z,101486.28
2023-05-20T21:18:34.736Z,101489.81
2023-05-20T21:21:03.050Z,101496.94
2023-05-20T21:23:30.390Z,101489.81
2023-05-20T21:25:57.629Z,101479.06
2023-05-20T21:28:24.982Z,101481.00
2023-05-20T21:30:52.273Z,101477.38
2023-05-20T21:33:19.535Z,101473.78
2023-05-20T21:35:47.026Z,101477.38
2023-05-20T21:38:14.314Z,101471.00
2023-05-20T21:40:47.409Z,101468.31
2023-05-20T21:43:14.752Z,101469.16
2023-05-20T21:45:41.978Z,101462.19
2023-05-20T21:48:09.481Z,101461.84
2023-05-20T21:50:36.696Z,101451.59
2023-05-20T21:53:03.925Z,101461.13
2023-05-20T21:55:31.170Z,101460.88
2023-05-20T21:57:58.440Z,101456.34
2023-05-20T22:00:25.775Z,101457.22
2023-05-20T22:02:53.322Z,101454.41
2023-05-20T22:05:23.581Z,101452.56
2023-05-20T22:07:51.431Z,101457.97
2023-05-20T22:10:20.926Z,101457.81
2023-05-20T22:12:48.182Z,101454.19
2023-05-20T22:15:15.416Z,101448.78
2023-05-20T22:17:44.790Z,101456.88
2023-05-20T22:20:12.671Z,101459.56
2023-05-20T22:22:40.047Z,101455.88
2023-05-20T22:25:08.312Z,101460.50
2023-05-20T22:27:36.025Z,101460.41
2023-05-20T22:30:06.057Z,101451.97
2023-05-20T22:32:33.348Z,101458.56
2023-05-20T22:35:00.588Z,101454.03
2023-05-20T22:37:28.863Z,101452.34
2023-05-20T22:39:56.554Z,101451.09
2023-05-20T22:42:23.854Z,101453.66
2023-05-20T22:44:51.109Z,101458.31
2023-05-20T22:47:18.304Z,101452.94
2023-05-20T22:49:45.723Z,101452.22
2023-05-20T22:52:13.220Z,101451.47
2023-05-20T22:54:40.635Z,101451.47
2023-05-20T22:57:08.278Z,101441.69
2023-05-20T22:59:36.532Z,101436.31
2023-05-20T23:02:04.493Z,101443.41
2023-05-20T23:04:32.373Z,101440.72
2023-05-20T23:07:00.068Z,101443.41
2023-05-20T23:09:27.554Z,101438.88
2023-05-20T23:11:54.811Z,101432.66
2023-05-20T23:14:24.956Z,101433.63
2023-05-20T23:16:52.424Z,101428.25
2023-05-20T23:19:19.886Z,101427.25
2023-05-20T23:21:47.136Z,101426.41
2023-05-20T23:24:15.227Z,101427.41
2023-05-20T23:26:43.150Z,101420.19
2023-05-20T23:29:10.943Z,101420.03
2023-05-20T23:31:38.479Z,101417.50
2023-05-20T23:34:06.032Z,101409.41
2023-05-20T23:36:37.174Z,101405.88
2023-05-20T23:39:04.461Z,101406.72
2023-05-20T23:41:31.699Z,101400.50
2023-05-20T23:43:59.304Z,101408.56
2023-05-20T23:46:26.799Z,101411.25
2023-05-20T23:48:54.018Z,101408.56
2023-05-20T23:51:21.234Z,101407.59
2023-05-20T23:53:48.665Z,101411.25
2023-05-20T23:56:15.912Z,101405.00
2023-05-20T23:58:43.145Z,101402.31
